Lovell Field
KCHA : now visible

Airfield :











YOU CAN JOIN US ON...

 
LOGIN :

Register | Disclaimer

   EN    FR    IT 

 









Legend :    VFR   Marginal VFR   IFR   Intensive IFR   Very Intensive IFR
Visi :
Ceiling :
>= 8 km
>= 3000ft
5 to 8 km
1000 to 3000 ft
1500m to 5 km
500 to 1000 ft
800 to 1500m
200 to 500 ft
< 800m
< 200 ft
Symbols :   Thunderstorms  Fog  Heavy snow  Heavy precipitations  Wind > 20 kt






- Airport Elevation : 683 ft
- IATA code : CHA


KCHA - Lovell Field

CURRENT METAR :
  • 130353Z 21004KT 10SM OVC028 07/04 A3030 RMK AO2 SLP262 T00670039

EXPIRED METARs :
  • 130339Z 00000KT 10SM OVC028 07/04 A3030 RMK AO2 T00670039
  • 130253Z 18003KT 10SM OVC033 06/04 A3030 RMK AO2 RAE0154 SLP265 P0000 60001 T00610039 58003
  • 130153Z 19006KT 7SM -RA OVC033 06/04 A3033 RMK AO2 SLP275 P0001 T00610039

TAF KCHA
Valid from the 13 at 01:00 until the 14 at 00:00 UTC


130124Z 1301/1324 16007KT P6SM -RA OVC035
FM130400 17005KT P6SM VCSH OVC030
FM131000 VRB03KT 5SM BR OVC008
PROB30 1310/1314 2SM -RA BR OVC004
FM131400 35004KT 2SM -RA BR OVC006
FM132000 VRB03KT 5SM -RA BR SCT008 OVC015



MET'MAP, your aeronautical weather chart ! - Copyright ORBIFLY December 2007 - Disclaimer

ORBIFLY MET'MAP TEAM :

Programming & Development : Alexandra Zaïnal
Concept & original design : Baudouin d'Aumeries
Assistance for programming : Marc-Olivier Méhu
Technical & hardware support : Manuel Goepfert

Contact : metmap@orbifly.com




SOURCES & CREDITS :

   NOAA       Earth
Advisory